(°C)
18°
17°
16°
14°
12°
11°
11°
(°C)
13°
12°
11°
SE
SE
SSE
SE
SE
SE
SE
(km/h)
14-20
15-20
14-19
11-16
11-20
13-20
14-22
(mm)
0
0
0
0
0
0
0
(%)
0
0
0
0
0
0
0

Élévation du soleil

/ 15.7°
sun-icon
UV 1
07:58
18:40
Gibbeuse croissante (144°)
18:01
03:46

METAR pour 51.15°N 51.54°E (UARR)

Heure Conditions Température/
Point de rosée
Vent Visibilité Météo Nuages Pression Changement Brut
VFR 18°C / 0°C 140º 10kt >10km - Clouds and Visibility OK 1017 No Significant change UARR 171100Z 14005MPS CAVOK 18/00 Q1017 R04/CLRD70 NOSIG RMK QFE760/1013
VFR 18°C / 0°C 150º 10kt >10km - Scattered Clouds 5000ft 1017 No Significant change UARR 171030Z 15005MPS 9999 SCT050CB 18/M00 Q1017 R04/CLRD70 NOSIG RMK QFE760/1013
VFR 18°C / -1°C 140º 8kt >10km - Scattered Clouds 5000ft 1018 No Significant change UARR 171000Z 14004MPS 9999 SCT050CB 18/M01 Q1018 R04/CLRD70 NOSIG RMK QFE760/1013
VFR 18°C / -1°C 130º variable 070º to 180º 4kt >10km - Scattered Clouds 5000ft 1018 No Significant change UARR 170930Z 13002MPS 070V180 9999 SCT050CB 18/M01 Q1018 R04/CLRD70 NOSIG RMK QFE760/1013
VFR 16°C / 1°C 110º variable 030º to 150º 4kt >10km - Scattered Clouds 5000ft 1018 No Significant change UARR 170900Z 11002MPS 030V150 9999 SCT050CB 16/01 Q1018 R04/CLRD70 NOSIG RMK QFE760/1014
VFR 15°C / 1°C 80º variable 020º to 130º 4kt >10km - Scattered Clouds 5000ft 1018 No Significant change UARR 170830Z 08002MPS 020V130 9999 SCT050CB 15/01 Q1018 R04/CLRD70 NOSIG RMK QFE760/1014
VFR 14°C / 1°C 100º variable 070º to 130º 6kt >10km - Scattered Clouds 5000ft 1019 No Significant change UARR 170800Z 10003MPS 070V130 9999 SCT050CB 14/01 Q1019 R04/CLRD70 NOSIG RMK QFE761/1014
VFR 13°C / 1°C 70º variable 030º to 110º 4kt >10km - Scattered Clouds 5000ft 1019 No Significant change UARR 170730Z 07002MPS 030V110 9999 SCT050CB 13/01 Q1019 R04/CLRD70 NOSIG RMK QFE761/1014
VFR 12°C / 1°C 100º variable 050º to 170º 4kt >10km - Scattered Clouds 5000ft 1019 No Significant change UARR 170700Z 10002MPS 050V170 9999 SCT050CB 12/01 Q1019 R04/CLRD70 NOSIG RMK QFE761/1014
VFR 12°C / 2°C 120º 4kt >10km - Scattered Clouds 5000ft 1019 No Significant change UARR 170630Z 12002MPS 9999 SCT050CB 12/02 Q1019 R04/CLRD70 NOSIG RMK QFE761/1015
VFR 11°C / 2°C 130º 6kt >10km - Scattered Clouds 5000ft 1019 No Significant change UARR 170600Z 13003MPS 9999 SCT050CB 11/02 Q1019 R04/CLRD70 NOSIG RMK QFE761/1015
VFR 10°C / 3°C 140º 4kt >10km - Scattered Clouds 5000ft 1019 No Significant change UARR 170530Z 14002MPS 9999 SCT050CB 10/03 Q1019 R04/CLRD70 NOSIG RMK QFE761/1015
VFR 10°C / 3°C 110º 4kt >10km - Scattered Clouds 5000ft 1020 No Significant change UARR 170500Z 11002MPS 9999 SCT050CB 10/03 Q1020 R04/CLRD70 NOSIG RMK QFE761/1015
VFR 8°C / 4°C 60º 4kt >10km - Scattered Clouds 5000ft 1020 No Significant change UARR 170430Z 06002MPS 9999 SCT050CB 08/04 Q1020 R04/CLRD70 NOSIG RMK QFE761/1015
VFR 6°C / 5°C 40º 4kt >10km - Scattered Clouds 5000ft 1020 No Significant change. Runway 04: Damp, 51-100% contamination with <1mm, friction coefficient 0.60. UARR 170400Z 04002MPS 9999 SCT050CB 06/05 Q1020 R04/190060 NOSIG RMK QFE761/1015
VFR 6°C / 5°C 40º 6kt >10km - Scattered Clouds 5000ft 1020 No Significant change. Runway 04: Damp, 51-100% contamination with <1mm, friction coefficient 0.60. UARR 170330Z 04003MPS 9999 SCT050CB 06/05 Q1020 R04/190060 NOSIG RMK QFE761/1015
VFR 5°C / 4°C 10º 4kt >10km - Scattered Clouds 5000ft 1020 No Significant change. Runway 04: Damp, 51-100% contamination with <1mm, friction coefficient 0.60. UARR 170300Z 01002MPS 9999 SCT050CB 05/04 Q1020 R04/190060 NOSIG RMK QFE761/1015
VFR 5°C / 4°C 360º 4kt >10km - Scattered Clouds 5000ft 1020 No Significant change. Runway 04: Damp, 51-100% contamination with <1mm, friction coefficient 0.60. UARR 170230Z 36002MPS 9999 SCT050CB 05/04 Q1020 R04/190060 NOSIG RMK QFE761/1015
VFR 5°C / 4°C 350º 6kt >10km - Scattered Clouds 5000ft 1020 No Significant change UARR 170200Z 35003MPS 9999 SCT050CB 05/04 Q1020 R04/CLRD70 NOSIG RMK QFE761/1015
VFR 6°C / 4°C 40º 6kt >10km Light Showers Rain 3.00mm precipitation Vertical Visibility of 0ft. 1020 No Significant change UARR 170130Z 04003MPS 9999 -SHRA SCT050CB 06/04 Q1020 R04/CLRD70 NOSIG RMK QFE761/1015
VFR 6°C / 4°C 340º 6kt >10km - Few Clouds 5000ft 1020 No Significant change UARR 170100Z 34003MPS 9999 FEW050CB 06/04 Q1020 R04/CLRD70 NOSIG RMK QFE762/1016
VFR 5°C / 4°C 360º 4kt >10km - Few Clouds 5000ft 1020 No Significant change UARR 170030Z 36002MPS 9999 FEW050CB 05/04 Q1020 R04/CLRD70 NOSIG RMK QFE761/1015
VFR 5°C / 4°C 30º 6kt >10km - Clouds and Visibility OK 1020 No Significant change UARR 170000Z 03003MPS CAVOK 05/04 Q1020 R04/CLRD70 NOSIG RMK QFE761/1015
VFR 5°C / 3°C 360º 4kt >10km - Clouds and Visibility OK 1020 No Significant change UARR 162300Z 36002MPS CAVOK 05/03 Q1020 R04/CLRD70 NOSIG RMK QFE762/1016

VFR

18°C / 0°C

[Plus]
Vent 140º 10kt
Visibilité >10km
Météo -
Nuages Clouds and Visibility OK
Pression 1017
Changement No Significant change
Brut UARR 171100Z 14005MPS CAVOK 18/00 Q1017 R04/CLRD70 NOSIG RMK QFE760/1013

VFR

18°C / 0°C

[Plus]
Vent 150º 10kt
Visibilité >10km
Météo -
Nuages Scattered Clouds 5000ft
Pression 1017
Changement No Significant change
Brut UARR 171030Z 15005MPS 9999 SCT050CB 18/M00 Q1017 R04/CLRD70 NOSIG RMK QFE760/1013

VFR

18°C / -1°C

[Plus]
Vent 140º 8kt
Visibilité >10km
Météo -
Nuages Scattered Clouds 5000ft
Pression 1018
Changement No Significant change
Brut UARR 171000Z 14004MPS 9999 SCT050CB 18/M01 Q1018 R04/CLRD70 NOSIG RMK QFE760/1013

VFR

18°C / -1°C

[Plus]
Vent 130º variable 070º to 180º 4kt
Visibilité >10km
Météo -
Nuages Scattered Clouds 5000ft
Pression 1018
Changement No Significant change
Brut UARR 170930Z 13002MPS 070V180 9999 SCT050CB 18/M01 Q1018 R04/CLRD70 NOSIG RMK QFE760/1013

VFR

16°C / 1°C

[Plus]
Vent 110º variable 030º to 150º 4kt
Visibilité >10km
Météo -
Nuages Scattered Clouds 5000ft
Pression 1018
Changement No Significant change
Brut UARR 170900Z 11002MPS 030V150 9999 SCT050CB 16/01 Q1018 R04/CLRD70 NOSIG RMK QFE760/1014

VFR

15°C / 1°C

[Plus]
Vent 80º variable 020º to 130º 4kt
Visibilité >10km
Météo -
Nuages Scattered Clouds 5000ft
Pression 1018
Changement No Significant change
Brut UARR 170830Z 08002MPS 020V130 9999 SCT050CB 15/01 Q1018 R04/CLRD70 NOSIG RMK QFE760/1014

VFR

14°C / 1°C

[Plus]
Vent 100º variable 070º to 130º 6kt
Visibilité >10km
Météo -
Nuages Scattered Clouds 5000ft
Pression 1019
Changement No Significant change
Brut UARR 170800Z 10003MPS 070V130 9999 SCT050CB 14/01 Q1019 R04/CLRD70 NOSIG RMK QFE761/1014

VFR

13°C / 1°C

[Plus]
Vent 70º variable 030º to 110º 4kt
Visibilité >10km
Météo -
Nuages Scattered Clouds 5000ft
Pression 1019
Changement No Significant change
Brut UARR 170730Z 07002MPS 030V110 9999 SCT050CB 13/01 Q1019 R04/CLRD70 NOSIG RMK QFE761/1014

VFR

12°C / 1°C

[Plus]
Vent 100º variable 050º to 170º 4kt
Visibilité >10km
Météo -
Nuages Scattered Clouds 5000ft
Pression 1019
Changement No Significant change
Brut UARR 170700Z 10002MPS 050V170 9999 SCT050CB 12/01 Q1019 R04/CLRD70 NOSIG RMK QFE761/1014

VFR

12°C / 2°C

[Plus]
Vent 120º 4kt
Visibilité >10km
Météo -
Nuages Scattered Clouds 5000ft
Pression 1019
Changement No Significant change
Brut UARR 170630Z 12002MPS 9999 SCT050CB 12/02 Q1019 R04/CLRD70 NOSIG RMK QFE761/1015

VFR

11°C / 2°C

[Plus]
Vent 130º 6kt
Visibilité >10km
Météo -
Nuages Scattered Clouds 5000ft
Pression 1019
Changement No Significant change
Brut UARR 170600Z 13003MPS 9999 SCT050CB 11/02 Q1019 R04/CLRD70 NOSIG RMK QFE761/1015

VFR

10°C / 3°C

[Plus]
Vent 140º 4kt
Visibilité >10km
Météo -
Nuages Scattered Clouds 5000ft
Pression 1019
Changement No Significant change
Brut UARR 170530Z 14002MPS 9999 SCT050CB 10/03 Q1019 R04/CLRD70 NOSIG RMK QFE761/1015

VFR

10°C / 3°C

[Plus]
Vent 110º 4kt
Visibilité >10km
Météo -
Nuages Scattered Clouds 5000ft
Pression 1020
Changement No Significant change
Brut UARR 170500Z 11002MPS 9999 SCT050CB 10/03 Q1020 R04/CLRD70 NOSIG RMK QFE761/1015

VFR

8°C / 4°C

[Plus]
Vent 60º 4kt
Visibilité >10km
Météo -
Nuages Scattered Clouds 5000ft
Pression 1020
Changement No Significant change
Brut UARR 170430Z 06002MPS 9999 SCT050CB 08/04 Q1020 R04/CLRD70 NOSIG RMK QFE761/1015

VFR

6°C / 5°C

[Plus]
Vent 40º 4kt
Visibilité >10km
Météo -
Nuages Scattered Clouds 5000ft
Pression 1020
Changement No Significant change. Runway 04: Damp, 51-100% contamination with <1mm, friction coefficient 0.60.
Brut UARR 170400Z 04002MPS 9999 SCT050CB 06/05 Q1020 R04/190060 NOSIG RMK QFE761/1015

VFR

6°C / 5°C

[Plus]
Vent 40º 6kt
Visibilité >10km
Météo -
Nuages Scattered Clouds 5000ft
Pression 1020
Changement No Significant change. Runway 04: Damp, 51-100% contamination with <1mm, friction coefficient 0.60.
Brut UARR 170330Z 04003MPS 9999 SCT050CB 06/05 Q1020 R04/190060 NOSIG RMK QFE761/1015

VFR

5°C / 4°C

[Plus]
Vent 10º 4kt
Visibilité >10km
Météo -
Nuages Scattered Clouds 5000ft
Pression 1020
Changement No Significant change. Runway 04: Damp, 51-100% contamination with <1mm, friction coefficient 0.60.
Brut UARR 170300Z 01002MPS 9999 SCT050CB 05/04 Q1020 R04/190060 NOSIG RMK QFE761/1015

VFR

5°C / 4°C

[Plus]
Vent 360º 4kt
Visibilité >10km
Météo -
Nuages Scattered Clouds 5000ft
Pression 1020
Changement No Significant change. Runway 04: Damp, 51-100% contamination with <1mm, friction coefficient 0.60.
Brut UARR 170230Z 36002MPS 9999 SCT050CB 05/04 Q1020 R04/190060 NOSIG RMK QFE761/1015

VFR

5°C / 4°C

[Plus]
Vent 350º 6kt
Visibilité >10km
Météo -
Nuages Scattered Clouds 5000ft
Pression 1020
Changement No Significant change
Brut UARR 170200Z 35003MPS 9999 SCT050CB 05/04 Q1020 R04/CLRD70 NOSIG RMK QFE761/1015

VFR

6°C / 4°C

[Plus]
Vent 40º 6kt
Visibilité >10km
Météo Light Showers Rain 3.00mm precipitation
Nuages Vertical Visibility of 0ft.
Pression 1020
Changement No Significant change
Brut UARR 170130Z 04003MPS 9999 -SHRA SCT050CB 06/04 Q1020 R04/CLRD70 NOSIG RMK QFE761/1015

VFR

6°C / 4°C

[Plus]
Vent 340º 6kt
Visibilité >10km
Météo -
Nuages Few Clouds 5000ft
Pression 1020
Changement No Significant change
Brut UARR 170100Z 34003MPS 9999 FEW050CB 06/04 Q1020 R04/CLRD70 NOSIG RMK QFE762/1016

VFR

5°C / 4°C

[Plus]
Vent 360º 4kt
Visibilité >10km
Météo -
Nuages Few Clouds 5000ft
Pression 1020
Changement No Significant change
Brut UARR 170030Z 36002MPS 9999 FEW050CB 05/04 Q1020 R04/CLRD70 NOSIG RMK QFE761/1015

VFR

5°C / 4°C

[Plus]
Vent 30º 6kt
Visibilité >10km
Météo -
Nuages Clouds and Visibility OK
Pression 1020
Changement No Significant change
Brut UARR 170000Z 03003MPS CAVOK 05/04 Q1020 R04/CLRD70 NOSIG RMK QFE761/1015

VFR

5°C / 3°C

[Plus]
Vent 360º 4kt
Visibilité >10km
Météo -
Nuages Clouds and Visibility OK
Pression 1020
Changement No Significant change
Brut UARR 162300Z 36002MPS CAVOK 05/03 Q1020 R04/CLRD70 NOSIG RMK QFE762/1016

TAF pour 51.15°N 51.54°E (UARR)

From till


From till Wind 160º 14kt. Visibility 10km or more. Scattered Clouds 3300ft.
Temporarly from till Wind 130º 8kt.

Brut: TAF UARR 171100Z 1712/1721 16007MPS 9999 SCT033CB TEMPO 1712/1718 13004MPS

Les images satellites et les pluies actuelles pour 51.15°N 51.54°E

Le marqueur est placé sur 51.15°N 51.54°E. [Plus]

L'image satellite en temps réel combine la lumière visible pendant la journée et le rayonnement infrarouge pendant la nuit. La nuit, l'image n'est pas sombre car le rayonnement infrarouge permet de détecter les différences de température. Malheureusement, les nuages bas et le brouillard sont difficiles à distinguer des températures au sol et peuvent donc être presque invisibles pendant la nuit. Les images des satellites Météosat pour l'Europe sont mises à jour en temps réel toutes les 5 minutes. Les images GOES-16/GOES-17 (Amérique du Nord et du Sud) et Himawari (Asie) sont mises à jour toutes les 10 minutes.

Copyright 2021 EUMETSAT / meteoblue. / Copyright 2021 meteoblue

Radar et prévision de précipitation à court terme pour 51.15°N 51.54°E

Bruine
Légère
Modéré
Fort
Très fort
Grêle

Le marqueur est placé sur 51.15°N 51.54°E. Cette animation montre le Radar des précipitations pour les dernières heures, ainsi qu'une 1h prévision. La bruine ou les légères chutes de neiges peuvent ne pas être détectées par le radar. L'intensité des précipitations est visible avec un code couleur allant du bleu clair au orange.